To NAV CANADA Home Page Login to a new session Search on AWWS site Feedback and Comments Disclaimer Vers la page française équivalente Tips FAQ What's new on the site To the Forecasts and Observations / NOTAM section To "File a Flight Plan" website Publications and other links Update of the User's profile FIC Telephone Numbers My Weather Data Folder Route Weather Data Regional Weather Data Local Weather Data To the Forecasts and Observations / NOTAM section
Request Generated 10/17/2017 at 01:50:02 UTC . Weather information available at that time is displayed.

METAR/TAF

EUREKA/NU    

METAR CWEU 170100Z 00000KT 15SM BKN100 OVC130 M28/M31 A2988 RMK
AC7AC1 SLP120=
METAR CWEU 170000Z 07003KT 15SM SCT100 BKN130 M29/M33 A2987 RMK
AC3AC4 SLP119=
METAR CWEU 162300Z 06003KT 15SM FEW100 BKN120 M29/M32 A2987 RMK
AC1AS7 AC TR SLP118=

TAF CYEU 162338Z 1700/1702 ADVISORY OFFSITE VRB03KT P6SM FEW060
BKN120
RMK NXT FCST WILL BE ISSUED AT 171045Z=
Your time UTC time
Weather data provided by Environment Canada and NAV CANADA